Flight Track Log - Related Links

Times and Time Zones

All times are in EDT time to prevent confusion due to time zone crossing. See the GGN7280 flight status page for this flight to view local times or setup timezone preferences in your user account.

Time Position Orientation Groundspeed Altitude Reporting Facility
EDT Latitude Longitude Course Direction KTS MPH feet Rate Location/Type
Tue 09:30:39 AM 43.6500 -79.6167 360° North 10 12 600  Level Toronto Center
Tue 09:33:38 AM 43.6500 -79.6167 90° East 10 12 600 377 Level Toronto Center
Tue 09:34:38 AM 43.6667 -79.5333 75° East 140 161 2,100 1,700 Climbing Toronto Center
Tue 09:35:38 AM 43.6667 -79.5000 90° East 170 196 4,000 1,500 Climbing Toronto Center
Tue 09:36:38 AM 43.6333 -79.4333 125° Southeast 190 219 5,100 550 Climbing Toronto Center
Tue 09:37:38 AM 43.6000 -79.3500 119° Southeast 230 265 5,100 100 Level Toronto Center
Tue 09:38:38 AM 43.5667 -79.2667 119° Southeast 250 288 5,300 1,050 Climbing Toronto Center
Tue 09:39:38 AM 43.5333 -79.2000 125° Southeast 230 265 7,200 1,650 Climbing Toronto Center
Tue 09:40:38 AM 43.5167 -79.1333 109° East 210 242 8,600 1,400 Climbing Toronto Center
Tue 09:41:38 AM 43.5000 -79.0333 103° East 220 253 10,000 1,350 Climbing Toronto Center
Tue 09:42:38 AM 43.4833 -78.9667 109° East 220 253 11,300 1,350 Climbing Toronto Center
Tue 09:43:38 AM 43.4833 -78.8667 90° East 230 265 12,700 1,350 Climbing Toronto Center
Tue 09:44:38 AM 43.4833 -78.7833 90° East 230 265 14,000 1,587 Climbing Toronto Center
Tue 09:45:39 AM 43.4667 -78.6833 103° East 230 265 15,900 1,650 Climbing Toronto Center
Tue 09:46:38 AM 43.4500 -78.6000 105° East 230 265 17,300 1,311 Climbing Toronto Center
Tue 09:47:38 AM 43.4500 -78.5000 90° East 240 276 18,500 1,250 Climbing Toronto Center
Tue 09:48:38 AM 43.4167 -78.4167 119° Southeast 240 276 19,800 1,095 Climbing Toronto Center
Tue 09:49:55 AM 43.4303 -78.3306 78° East 239 275 21,000 920 Climbing Cleveland Center
Tue 09:50:55 AM 43.4183 -78.2453 101° East 239 275 21,900 900 Climbing Cleveland Center
Tue 09:51:55 AM 43.4036 -78.1458 101° East 237 273 22,800 500 Climbing Cleveland Center
Tue 09:52:55 AM 43.3911 -78.0436 100° East 244 281 22,900 50 Climbing Cleveland Center
Tue 09:53:55 AM 43.3678 -77.9389 107° East 267 307 22,900  Level Cleveland Center
Tue 09:54:55 AM 43.3569 -77.8281 98° East 280 322 22,900  Level Cleveland Center
Tue 09:55:55 AM 43.3419 -77.7200 101° East 280 322 22,900  Level Cleveland Center
Tue 09:56:55 AM 43.3286 -77.6122 100° East 285 328 22,900  Level Cleveland Center
Tue 09:57:55 AM 43.3156 -77.5072 100° East 285 328 22,900  Level Cleveland Center
Tue 09:58:55 AM 43.3022 -77.3994 100° East 285 328 22,900  Level Cleveland Center
Tue 10:00:44 AM 43.2783 -77.2094 100° East 279 321 22,900  Level Boston Center
Tue 10:01:44 AM 43.2636 -77.1056 101° East 279 321 22,900  Level Boston Center
Tue 10:02:38 AM 43.2333 -76.9833 109° East 280 322 22,900 579 Level Toronto Center
Tue 10:03:38 AM 43.2167 -76.8833 103° East 270 311 24,000 900 Climbing Toronto Center
Tue 10:04:38 AM 43.2167 -76.7667 90° East 260 299 24,700 450 Climbing Toronto Center
Tue 10:05:38 AM 43.2000 -76.6833 105° East 260 299 24,900 100 Climbing Toronto Center
Tue 10:06:38 AM 43.1667 -76.6000 119° Southeast 270 311 24,900  Level Toronto Center
Tue 10:07:38 AM 43.1667 -76.4833 90° East 270 311 24,900  Level Toronto Center
Tue 10:08:38 AM 43.1500 -76.3833 103° East 270 311 24,900  Level Toronto Center
Tue 10:09:44 AM 43.1436 -76.3047 96° East 262 302 24,900 -333 Level Boston Center
Tue 10:10:44 AM 43.1283 -76.1986 101° East 267 307 24,200 -850 Descending Boston Center
Tue 10:11:44 AM 43.1108 -76.0950 103° East 273 314 23,200 -1,050 Descending Boston Center
Tue 10:12:44 AM 43.0997 -75.9836 98° East 280 322 22,100 -1,100 Descending Boston Center
Tue 10:13:44 AM 43.0947 -75.8753 94° East 280 322 21,000 -1,100 Descending Boston Center
Tue 10:14:44 AM 43.0894 -75.7697 94° East 280 322 19,900 -1,100 Descending Boston Center
Tue 10:15:44 AM 43.0864 -75.6614 92° East 280 322 18,800 -1,100 Descending Boston Center
Tue 10:16:44 AM 43.0792 -75.5500 95° East 285 328 17,700 -1,100 Descending Boston Center
Tue 10:17:44 AM 43.0758 -75.4361 92° East 291 335 16,600 -1,100 Descending Boston Center
Tue 10:18:44 AM 43.0703 -75.3250 94° East 291 335 15,500 -1,150 Descending Boston Center
Tue 10:19:44 AM 43.0669 -75.2142 92° East 291 335 14,300 -1,250 Descending Boston Center
Tue 10:20:44 AM 43.0633 -75.1031 93° East 291 335 13,000 -1,250 Descending Boston Center
Tue 10:21:44 AM 43.0553 -74.9947 96° East 291 335 11,800 -1,050 Descending Boston Center
Tue 10:22:44 AM 43.0472 -74.8892 96° East 286 329 10,900 -444 Descending Boston Center
Tue 10:23:32 AM 43.0428 -74.8067 94° East 269 310 11,000 77 Climbing Boston Center
Tue 10:24:02 AM 43.0417 -74.7525 92° East 265 305 11,000 -83 Level Boston Center
Tue 10:24:44 AM 43.0347 -74.6869 98° East 270 311 10,900 -59 Descending Boston Center
Tue 10:25:44 AM 43.0303 -74.5875 93° East 265 305 10,900  Level Boston Center
Tue 10:26:44 AM 43.0239 -74.4878 95° East 260 299 10,900 -50 Level Boston Center
Tue 10:27:44 AM 43.0153 -74.3881 97° East 260 299 10,800 -750 Descending Boston Center
Tue 10:28:44 AM 42.9811 -74.3075 120° Southeast 248 285 9,400 -1,500 Descending Boston Center
Tue 10:29:44 AM 42.9367 -74.2239 126° Southeast 261 300 7,800 -1,500 Descending Boston Center
Tue 10:30:44 AM 42.9003 -74.1436 122° Southeast 266 306 6,400 -1,516 Descending Boston Center
Tue 10:31:19 AM 42.8803 -74.0975 121° Southeast 246 283 5,400 -884 Descending Boston Center
Tue 10:32:19 AM 42.8267 -74.0567 151° Southeast 226 260 5,000 -198 Descending Boston Center
Tue 10:33:20 AM 42.7667 -74.0153 153° Southeast 223 257 5,000 -522 Level Boston Center
Tue 10:34:14 AM 42.7150 -73.9831 155° Southeast 230 265 4,000 -714 Descending Boston Center
Tue 10:34:44 AM 42.6922 -73.9683 155° Southeast 229 264 4,000  Level Boston Center
Tue 10:35:15 AM 42.6572 -73.9478 157° South 225 259 4,000 -488 Level Boston Center
Tue 10:36:10 AM 42.6056 -73.9153 155° Southeast 220 253 3,300 -674 Descending Boston Center
Tue 10:36:44 AM 42.5828 -73.8950 147° Southeast 229 264 3,000 -255 Descending Boston Center
Tue 10:37:44 AM 42.5672 -73.8186 105° East 190 219 2,900 -452 Descending Boston Center
Tue 10:38:17 AM 42.5883 -73.7936 41° Northeast 194 223 2,300 -581 Descending Boston Center
Tue 10:39:17 AM 42.6361 -73.8033 351° North 175 201 2,000 -446 Descending Boston Center
Tue 10:40:18 AM 42.6881 -73.8044 359° North 178 205 1,400 -689 Descending Boston Center
Tue 10:41:19 AM 42.7297 -73.8081 356° North 140 161 600 -787 Descending Boston Center

Login

Don't have an account? Register now (free) for customized features, flight alerts, and more!